sensor_id;sensor_type;location;lat;lon;timestamp;P1;durP1;ratioP1;P2;durP2;ratioP2
34200;SDS011;20469;55.638;37.670;2024-02-26T00:00:27;7.78;;;3.85;;
34200;SDS011;20469;55.638;37.670;2024-02-26T00:02:57;6.82;;;3.75;;
34200;SDS011;20469;55.638;37.670;2024-02-26T00:05:25;6.85;;;3.40;;
34200;SDS011;20469;55.638;37.670;2024-02-26T00:07:54;6.40;;;3.83;;
34200;SDS011;20469;55.638;37.670;2024-02-26T00:10:30;7.57;;;4.00;;
34200;SDS011;20469;55.638;37.670;2024-02-26T00:12:58;5.30;;;3.45;;
34200;SDS011;20469;55.638;37.670;2024-02-26T00:15:28;5.65;;;3.70;;
34200;SDS011;20469;55.638;37.670;2024-02-26T00:17:56;4.97;;;3.35;;
34200;SDS011;20469;55.638;37.670;2024-02-26T00:20:25;5.90;;;3.28;;
34200;SDS011;20469;55.638;37.670;2024-02-26T00:22:53;7.15;;;3.30;;
34200;SDS011;20469;55.638;37.670;2024-02-26T00:25:21;4.80;;;3.33;;
34200;SDS011;20469;55.638;37.670;2024-02-26T00:27:49;5.90;;;3.22;;
34200;SDS011;20469;55.638;37.670;2024-02-26T00:30:16;6.20;;;3.25;;
34200;SDS011;20469;55.638;37.670;2024-02-26T00:32:45;6.25;;;3.30;;
34200;SDS011;20469;55.638;37.670;2024-02-26T00:35:13;5.32;;;3.30;;
34200;SDS011;20469;55.638;37.670;2024-02-26T00:37:42;5.30;;;2.97;;
34200;SDS011;20469;55.638;37.670;2024-02-26T00:40:11;5.53;;;2.95;;
34200;SDS011;20469;55.638;37.670;2024-02-26T00:42:39;7.13;;;3.25;;
34200;SDS011;20469;55.638;37.670;2024-02-26T00:45:12;4.50;;;3.00;;
34200;SDS011;20469;55.638;37.670;2024-02-26T00:47:40;8.48;;;3.50;;
34200;SDS011;20469;55.638;37.670;2024-02-26T00:50:08;4.85;;;2.70;;
34200;SDS011;20469;55.638;37.670;2024-02-26T00:52:35;4.95;;;2.85;;
34200;SDS011;20469;55.638;37.670;2024-02-26T00:55:03;5.63;;;3.10;;
34200;SDS011;20469;55.638;37.670;2024-02-26T00:57:31;5.15;;;2.80;;
34200;SDS011;20469;55.638;37.670;2024-02-26T00:59:59;5.80;;;2.90;;
34200;SDS011;20469;55.638;37.670;2024-02-26T01:02:29;5.38;;;3.00;;
34200;SDS011;20469;55.638;37.670;2024-02-26T01:04:57;4.55;;;2.92;;
34200;SDS011;20469;55.638;37.670;2024-02-26T01:07:28;4.00;;;3.03;;
34200;SDS011;20469;55.638;37.670;2024-02-26T01:10:00;6.90;;;3.17;;
34200;SDS011;20469;55.638;37.670;2024-02-26T01:12:29;3.67;;;2.63;;
34200;SDS011;20469;55.638;37.670;2024-02-26T01:14:59;4.40;;;2.80;;
34200;SDS011;20469;55.638;37.670;2024-02-26T01:17:27;5.05;;;2.92;;
34200;SDS011;20469;55.638;37.670;2024-02-26T01:19:55;3.30;;;2.35;;
34200;SDS011;20469;55.638;37.670;2024-02-26T01:22:23;6.60;;;2.90;;
34200;SDS011;20469;55.638;37.670;2024-02-26T01:24:51;6.25;;;2.90;;
34200;SDS011;20469;55.638;37.670;2024-02-26T01:27:19;4.13;;;2.70;;
34200;SDS011;20469;55.638;37.670;2024-02-26T01:29:47;4.45;;;2.70;;
34200;SDS011;20469;55.638;37.670;2024-02-26T01:32:18;3.83;;;2.70;;
34200;SDS011;20469;55.638;37.670;2024-02-26T01:34:46;3.67;;;2.53;;
34200;SDS011;20469;55.638;37.670;2024-02-26T01:37:14;3.13;;;2.30;;
34200;SDS011;20469;55.638;37.670;2024-02-26T01:39:42;3.60;;;2.63;;
34200;SDS011;20469;55.638;37.670;2024-02-26T01:42:10;3.90;;;2.78;;
34200;SDS011;20469;55.638;37.670;2024-02-26T01:44:37;3.70;;;2.65;;
34200;SDS011;20469;55.638;37.670;2024-02-26T01:47:07;4.40;;;2.63;;
34200;SDS011;20469;55.638;37.670;2024-02-26T01:49:41;5.68;;;2.55;;
34200;SDS011;20469;55.638;37.670;2024-02-26T01:52:09;5.72;;;2.60;;
34200;SDS011;20469;55.638;37.670;2024-02-26T01:54:37;4.85;;;2.50;;
34200;SDS011;20469;55.638;37.670;2024-02-26T01:57:06;5.07;;;2.80;;
34200;SDS011;20469;55.638;37.670;2024-02-26T01:59:35;5.38;;;3.20;;
34200;SDS011;20469;55.638;37.670;2024-02-26T02:02:03;3.80;;;2.67;;
34200;SDS011;20469;55.638;37.670;2024-02-26T02:04:32;4.60;;;2.40;;
34200;SDS011;20469;55.638;37.670;2024-02-26T02:07:00;3.45;;;2.38;;
34200;SDS011;20469;55.638;37.670;2024-02-26T02:09:29;6.63;;;2.50;;
34200;SDS011;20469;55.638;37.670;2024-02-26T02:12:00;3.35;;;2.20;;
34200;SDS011;20469;55.638;37.670;2024-02-26T02:14:31;5.45;;;2.40;;
34200;SDS011;20469;55.638;37.670;2024-02-26T02:16:59;3.92;;;2.42;;
34200;SDS011;20469;55.638;37.670;2024-02-26T02:19:28;5.00;;;2.47;;
34200;SDS011;20469;55.638;37.670;2024-02-26T02:21:56;4.93;;;2.28;;
34200;SDS011;20469;55.638;37.670;2024-02-26T02:24:26;5.50;;;2.45;;
34200;SDS011;20469;55.638;37.670;2024-02-26T02:26:54;7.75;;;2.70;;
34200;SDS011;20469;55.638;37.670;2024-02-26T02:29:23;9.65;;;2.60;;
34200;SDS011;20469;55.638;37.670;2024-02-26T02:31:51;3.10;;;2.45;;
34200;SDS011;20469;55.638;37.670;2024-02-26T02:34:21;4.10;;;3.20;;
34200;SDS011;20469;55.638;37.670;2024-02-26T02:36:52;3.95;;;2.70;;
34200;SDS011;20469;55.638;37.670;2024-02-26T02:39:21;5.45;;;2.60;;
34200;SDS011;20469;55.638;37.670;2024-02-26T02:41:49;4.32;;;2.28;;
34200;SDS011;20469;55.638;37.670;2024-02-26T02:44:17;2.97;;;2.35;;
34200;SDS011;20469;55.638;37.670;2024-02-26T02:46:45;5.72;;;2.65;;
34200;SDS011;20469;55.638;37.670;2024-02-26T02:49:13;4.50;;;2.22;;
34200;SDS011;20469;55.638;37.670;2024-02-26T02:51:41;4.18;;;2.25;;
34200;SDS011;20469;55.638;37.670;2024-02-26T02:54:09;4.55;;;2.80;;
34200;SDS011;20469;55.638;37.670;2024-02-26T02:56:37;4.93;;;2.70;;
34200;SDS011;20469;55.638;37.670;2024-02-26T02:59:05;4.43;;;2.50;;
34200;SDS011;20469;55.638;37.670;2024-02-26T03:01:32;5.47;;;2.60;;
34200;SDS011;20469;55.638;37.670;2024-02-26T03:04:00;5.25;;;2.28;;
34200;SDS011;20469;55.638;37.670;2024-02-26T03:06:28;5.00;;;2.60;;
34200;SDS011;20469;55.638;37.670;2024-02-26T03:08:56;3.30;;;2.13;;
34200;SDS011;20469;55.638;37.670;2024-02-26T03:11:24;3.83;;;2.40;;
34200;SDS011;20469;55.638;37.670;2024-02-26T03:13:53;4.97;;;2.55;;
34200;SDS011;20469;55.638;37.670;2024-02-26T03:16:22;3.55;;;2.17;;
34200;SDS011;20469;55.638;37.670;2024-02-26T03:18:49;4.38;;;2.70;;
34200;SDS011;20469;55.638;37.670;2024-02-26T03:21:18;4.70;;;2.50;;
34200;SDS011;20469;55.638;37.670;2024-02-26T03:23:46;5.18;;;2.50;;
34200;SDS011;20469;55.638;37.670;2024-02-26T03:26:14;3.72;;;2.60;;
34200;SDS011;20469;55.638;37.670;2024-02-26T03:28:42;4.25;;;2.22;;
34200;SDS011;20469;55.638;37.670;2024-02-26T03:31:10;3.63;;;2.70;;
34200;SDS011;20469;55.638;37.670;2024-02-26T03:33:39;4.72;;;2.50;;
34200;SDS011;20469;55.638;37.670;2024-02-26T03:36:07;4.43;;;2.50;;
34200;SDS011;20469;55.638;37.670;2024-02-26T03:38:35;3.78;;;2.40;;
34200;SDS011;20469;55.638;37.670;2024-02-26T03:41:02;5.60;;;2.30;;
34200;SDS011;20469;55.638;37.670;2024-02-26T03:43:30;7.05;;;2.85;;
34200;SDS011;20469;55.638;37.670;2024-02-26T03:45:58;6.00;;;2.85;;
34200;SDS011;20469;55.638;37.670;2024-02-26T03:48:27;3.72;;;2.60;;
34200;SDS011;20469;55.638;37.670;2024-02-26T03:50:56;3.63;;;2.45;;
34200;SDS011;20469;55.638;37.670;2024-02-26T03:53:24;5.90;;;2.90;;
34200;SDS011;20469;55.638;37.670;2024-02-26T03:55:53;3.08;;;2.47;;
34200;SDS011;20469;55.638;37.670;2024-02-26T03:58:24;4.97;;;2.45;;
34200;SDS011;20469;55.638;37.670;2024-02-26T04:00:52;4.10;;;2.45;;
34200;SDS011;20469;55.638;37.670;2024-02-26T04:03:20;5.68;;;2.40;;
34200;SDS011;20469;55.638;37.670;2024-02-26T04:05:48;3.15;;;2.55;;
34200;SDS011;20469;55.638;37.670;2024-02-26T04:08:18;6.18;;;2.80;;
34200;SDS011;20469;55.638;37.670;2024-02-26T04:10:46;4.78;;;2.53;;
34200;SDS011;20469;55.638;37.670;2024-02-26T04:13:14;3.47;;;2.42;;
34200;SDS011;20469;55.638;37.670;2024-02-26T04:15:42;3.78;;;2.78;;
34200;SDS011;20469;55.638;37.670;2024-02-26T04:18:10;3.95;;;2.50;;
34200;SDS011;20469;55.638;37.670;2024-02-26T04:20:38;5.78;;;3.13;;
34200;SDS011;20469;55.638;37.670;2024-02-26T04:23:08;5.57;;;3.20;;
34200;SDS011;20469;55.638;37.670;2024-02-26T04:25:37;5.97;;;3.05;;
34200;SDS011;20469;55.638;37.670;2024-02-26T04:28:04;4.28;;;3.03;;
34200;SDS011;20469;55.638;37.670;2024-02-26T04:30:32;3.72;;;3.08;;
34200;SDS011;20469;55.638;37.670;2024-02-26T04:33:00;6.05;;;3.17;;
34200;SDS011;20469;55.638;37.670;2024-02-26T04:35:28;6.10;;;3.17;;
34200;SDS011;20469;55.638;37.670;2024-02-26T04:37:56;8.82;;;3.28;;
34200;SDS011;20469;55.638;37.670;2024-02-26T04:40:25;8.90;;;2.80;;
34200;SDS011;20469;55.638;37.670;2024-02-26T04:42:53;8.10;;;2.95;;
34200;SDS011;20469;55.638;37.670;2024-02-26T04:45:23;7.70;;;3.63;;
34200;SDS011;20469;55.638;37.670;2024-02-26T04:47:51;6.05;;;3.00;;
34200;SDS011;20469;55.638;37.670;2024-02-26T04:50:22;9.55;;;3.35;;
34200;SDS011;20469;55.638;37.670;2024-02-26T04:52:51;5.88;;;3.38;;
34200;SDS011;20469;55.638;37.670;2024-02-26T04:55:19;7.93;;;3.40;;
34200;SDS011;20469;55.638;37.670;2024-02-26T04:57:47;7.30;;;3.20;;
34200;SDS011;20469;55.638;37.670;2024-02-26T05:00:15;6.18;;;3.47;;
34200;SDS011;20469;55.638;37.670;2024-02-26T05:02:43;5.35;;;3.08;;
34200;SDS011;20469;55.638;37.670;2024-02-26T05:05:11;4.60;;;2.92;;
34200;SDS011;20469;55.638;37.670;2024-02-26T05:07:40;7.70;;;4.10;;
34200;SDS011;20469;55.638;37.670;2024-02-26T05:10:12;7.50;;;3.30;;
34200;SDS011;20469;55.638;37.670;2024-02-26T05:12:40;7.22;;;3.45;;
34200;SDS011;20469;55.638;37.670;2024-02-26T05:15:09;7.22;;;3.75;;
34200;SDS011;20469;55.638;37.670;2024-02-26T05:17:38;7.53;;;3.38;;
34200;SDS011;20469;55.638;37.670;2024-02-26T05:20:06;9.00;;;3.88;;
34200;SDS011;20469;55.638;37.670;2024-02-26T05:22:34;7.93;;;3.70;;
34200;SDS011;20469;55.638;37.670;2024-02-26T05:25:02;4.57;;;2.53;;
34200;SDS011;20469;55.638;37.670;2024-02-26T05:27:30;8.20;;;3.67;;
34200;SDS011;20469;55.638;37.670;2024-02-26T05:29:58;5.95;;;4.00;;
34200;SDS011;20469;55.638;37.670;2024-02-26T05:32:27;7.10;;;3.63;;
34200;SDS011;20469;55.638;37.670;2024-02-26T05:34:55;7.65;;;3.47;;
34200;SDS011;20469;55.638;37.670;2024-02-26T05:37:22;5.13;;;3.13;;
34200;SDS011;20469;55.638;37.670;2024-02-26T05:39:51;5.18;;;3.38;;
34200;SDS011;20469;55.638;37.670;2024-02-26T05:42:19;9.65;;;3.70;;
34200;SDS011;20469;55.638;37.670;2024-02-26T05:44:47;8.45;;;3.17;;
34200;SDS011;20469;55.638;37.670;2024-02-26T05:47:15;9.18;;;3.90;;
34200;SDS011;20469;55.638;37.670;2024-02-26T05:49:44;5.85;;;3.75;;
34200;SDS011;20469;55.638;37.670;2024-02-26T05:52:15;7.65;;;3.40;;
34200;SDS011;20469;55.638;37.670;2024-02-26T05:54:43;7.53;;;3.72;;
34200;SDS011;20469;55.638;37.670;2024-02-26T05:57:11;5.93;;;3.35;;
34200;SDS011;20469;55.638;37.670;2024-02-26T05:59:38;9.02;;;4.18;;
34200;SDS011;20469;55.638;37.670;2024-02-26T06:02:06;9.00;;;3.55;;
34200;SDS011;20469;55.638;37.670;2024-02-26T06:04:34;6.55;;;3.70;;
34200;SDS011;20469;55.638;37.670;2024-02-26T06:07:02;6.80;;;3.53;;
34200;SDS011;20469;55.638;37.670;2024-02-26T06:09:30;8.57;;;4.00;;
34200;SDS011;20469;55.638;37.670;2024-02-26T06:11:58;5.68;;;2.83;;
34200;SDS011;20469;55.638;37.670;2024-02-26T06:14:29;7.70;;;3.97;;
34200;SDS011;20469;55.638;37.670;2024-02-26T06:16:57;7.03;;;3.80;;
34200;SDS011;20469;55.638;37.670;2024-02-26T06:19:25;7.95;;;4.30;;
34200;SDS011;20469;55.638;37.670;2024-02-26T06:21:53;8.40;;;4.03;;
34200;SDS011;20469;55.638;37.670;2024-02-26T06:24:21;8.10;;;3.83;;
34200;SDS011;20469;55.638;37.670;2024-02-26T06:26:49;6.13;;;4.03;;
34200;SDS011;20469;55.638;37.670;2024-02-26T06:29:17;6.32;;;3.85;;
34200;SDS011;20469;55.638;37.670;2024-02-26T06:31:45;6.75;;;3.97;;
34200;SDS011;20469;55.638;37.670;2024-02-26T06:34:14;5.93;;;3.72;;
34200;SDS011;20469;55.638;37.670;2024-02-26T06:36:44;6.43;;;3.63;;
34200;SDS011;20469;55.638;37.670;2024-02-26T06:39:12;7.50;;;4.40;;
34200;SDS011;20469;55.638;37.670;2024-02-26T06:41:45;8.40;;;4.13;;
34200;SDS011;20469;55.638;37.670;2024-02-26T06:44:13;7.13;;;4.30;;
34200;SDS011;20469;55.638;37.670;2024-02-26T06:46:41;10.20;;;4.55;;
34200;SDS011;20469;55.638;37.670;2024-02-26T06:49:09;3.97;;;3.10;;
34200;SDS011;20469;55.638;37.670;2024-02-26T06:51:38;5.47;;;3.17;;
34200;SDS011;20469;55.638;37.670;2024-02-26T06:54:07;3.95;;;3.25;;
34200;SDS011;20469;55.638;37.670;2024-02-26T06:56:36;7.78;;;3.78;;
34200;SDS011;20469;55.638;37.670;2024-02-26T06:59:04;7.28;;;3.40;;
34200;SDS011;20469;55.638;37.670;2024-02-26T07:01:32;7.63;;;4.63;;
34200;SDS011;20469;55.638;37.670;2024-02-26T07:04:00;5.70;;;4.15;;
34200;SDS011;20469;55.638;37.670;2024-02-26T07:06:28;7.05;;;3.97;;
34200;SDS011;20469;55.638;37.670;2024-02-26T07:08:56;9.73;;;4.45;;
34200;SDS011;20469;55.638;37.670;2024-02-26T07:11:25;7.80;;;4.20;;
34200;SDS011;20469;55.638;37.670;2024-02-26T07:13:53;10.10;;;4.10;;
34200;SDS011;20469;55.638;37.670;2024-02-26T07:16:21;7.63;;;3.55;;
34200;SDS011;20469;55.638;37.670;2024-02-26T07:18:49;7.35;;;3.80;;
34200;SDS011;20469;55.638;37.670;2024-02-26T07:21:18;7.85;;;4.40;;
34200;SDS011;20469;55.638;37.670;2024-02-26T07:23:46;6.78;;;3.80;;
34200;SDS011;20469;55.638;37.670;2024-02-26T07:26:14;6.03;;;4.03;;
34200;SDS011;20469;55.638;37.670;2024-02-26T07:28:41;8.43;;;3.50;;
34200;SDS011;20469;55.638;37.670;2024-02-26T07:31:10;9.43;;;4.80;;
34200;SDS011;20469;55.638;37.670;2024-02-26T07:33:38;11.02;;;4.10;;
34200;SDS011;20469;55.638;37.670;2024-02-26T07:36:11;6.97;;;4.57;;
34200;SDS011;20469;55.638;37.670;2024-02-26T07:38:39;8.75;;;3.78;;
34200;SDS011;20469;55.638;37.670;2024-02-26T07:41:09;8.52;;;4.22;;
34200;SDS011;20469;55.638;37.670;2024-02-26T07:43:37;6.22;;;3.78;;
34200;SDS011;20469;55.638;37.670;2024-02-26T07:46:05;7.28;;;3.35;;
34200;SDS011;20469;55.638;37.670;2024-02-26T07:48:33;6.85;;;4.35;;
34200;SDS011;20469;55.638;37.670;2024-02-26T07:51:04;6.93;;;3.80;;
34200;SDS011;20469;55.638;37.670;2024-02-26T07:53:35;8.02;;;4.03;;
34200;SDS011;20469;55.638;37.670;2024-02-26T07:56:10;7.15;;;3.80;;
34200;SDS011;20469;55.638;37.670;2024-02-26T07:58:39;8.75;;;4.90;;
34200;SDS011;20469;55.638;37.670;2024-02-26T08:01:07;10.15;;;5.13;;
34200;SDS011;20469;55.638;37.670;2024-02-26T08:04:01;5.63;;;2.95;;
34200;SDS011;20469;55.638;37.670;2024-02-26T08:06:29;8.20;;;3.70;;
34200;SDS011;20469;55.638;37.670;2024-02-26T08:09:02;5.97;;;3.60;;
34200;SDS011;20469;55.638;37.670;2024-02-26T08:11:31;5.80;;;3.72;;
34200;SDS011;20469;55.638;37.670;2024-02-26T08:13:59;7.65;;;3.28;;
34200;SDS011;20469;55.638;37.670;2024-02-26T08:16:33;8.10;;;4.43;;
34200;SDS011;20469;55.638;37.670;2024-02-26T08:19:10;7.47;;;4.05;;
34200;SDS011;20469;55.638;37.670;2024-02-26T08:21:41;6.68;;;3.72;;
34200;SDS011;20469;55.638;37.670;2024-02-26T08:24:09;6.28;;;3.92;;
34200;SDS011;20469;55.638;37.670;2024-02-26T08:26:37;9.23;;;4.00;;
34200;SDS011;20469;55.638;37.670;2024-02-26T08:29:05;9.07;;;4.43;;
34200;SDS011;20469;55.638;37.670;2024-02-26T08:31:35;9.25;;;3.97;;
34200;SDS011;20469;55.638;37.670;2024-02-26T08:34:04;6.05;;;3.00;;
34200;SDS011;20469;55.638;37.670;2024-02-26T08:36:33;6.65;;;4.10;;
34200;SDS011;20469;55.638;37.670;2024-02-26T08:39:01;8.25;;;3.92;;
34200;SDS011;20469;55.638;37.670;2024-02-26T08:41:29;7.20;;;3.90;;
34200;SDS011;20469;55.638;37.670;2024-02-26T08:43:57;7.57;;;4.07;;
34200;SDS011;20469;55.638;37.670;2024-02-26T08:46:25;7.30;;;3.88;;
34200;SDS011;20469;55.638;37.670;2024-02-26T08:48:53;7.35;;;4.13;;
34200;SDS011;20469;55.638;37.670;2024-02-26T08:51:21;7.15;;;3.60;;
34200;SDS011;20469;55.638;37.670;2024-02-26T08:53:49;10.48;;;3.88;;
34200;SDS011;20469;55.638;37.670;2024-02-26T08:56:18;7.22;;;4.10;;
34200;SDS011;20469;55.638;37.670;2024-02-26T08:58:46;8.02;;;4.00;;
34200;SDS011;20469;55.638;37.670;2024-02-26T09:01:21;9.93;;;4.65;;
34200;SDS011;20469;55.638;37.670;2024-02-26T09:03:50;7.55;;;4.13;;
34200;SDS011;20469;55.638;37.670;2024-02-26T09:06:19;8.85;;;4.22;;
34200;SDS011;20469;55.638;37.670;2024-02-26T09:08:46;7.60;;;4.40;;
34200;SDS011;20469;55.638;37.670;2024-02-26T09:11:15;10.32;;;3.95;;
34200;SDS011;20469;55.638;37.670;2024-02-26T09:13:42;7.32;;;3.85;;
34200;SDS011;20469;55.638;37.670;2024-02-26T09:16:13;9.45;;;4.47;;
34200;SDS011;20469;55.638;37.670;2024-02-26T09:18:42;6.47;;;3.88;;
34200;SDS011;20469;55.638;37.670;2024-02-26T09:21:10;11.38;;;4.20;;
34200;SDS011;20469;55.638;37.670;2024-02-26T09:23:38;7.45;;;4.18;;
34200;SDS011;20469;55.638;37.670;2024-02-26T09:26:18;11.05;;;4.38;;
34200;SDS011;20469;55.638;37.670;2024-02-26T09:28:46;9.18;;;4.03;;
34200;SDS011;20469;55.638;37.670;2024-02-26T09:31:17;10.13;;;4.70;;
34200;SDS011;20469;55.638;37.670;2024-02-26T09:33:48;13.20;;;4.78;;
34200;SDS011;20469;55.638;37.670;2024-02-26T09:36:16;8.38;;;3.85;;
34200;SDS011;20469;55.638;37.670;2024-02-26T09:38:44;7.13;;;4.25;;
34200;SDS011;20469;55.638;37.670;2024-02-26T09:41:27;12.98;;;4.43;;
34200;SDS011;20469;55.638;37.670;2024-02-26T09:46:26;9.65;;;4.50;;
34200;SDS011;20469;55.638;37.670;2024-02-26T09:48:54;11.85;;;4.45;;
34200;SDS011;20469;55.638;37.670;2024-02-26T09:51:23;10.23;;;3.80;;
34200;SDS011;20469;55.638;37.670;2024-02-26T09:53:56;9.27;;;4.68;;
34200;SDS011;20469;55.638;37.670;2024-02-26T09:56:31;8.95;;;4.22;;
34200;SDS011;20469;55.638;37.670;2024-02-26T09:58:59;12.23;;;5.18;;
34200;SDS011;20469;55.638;37.670;2024-02-26T10:01:28;10.65;;;4.40;;
34200;SDS011;20469;55.638;37.670;2024-02-26T10:04:01;11.75;;;4.30;;
34200;SDS011;20469;55.638;37.670;2024-02-26T10:06:29;13.82;;;4.95;;
34200;SDS011;20469;55.638;37.670;2024-02-26T10:08:57;12.57;;;5.05;;
34200;SDS011;20469;55.638;37.670;2024-02-26T10:11:26;9.68;;;4.75;;
34200;SDS011;20469;55.638;37.670;2024-02-26T10:13:55;9.10;;;4.60;;
34200;SDS011;20469;55.638;37.670;2024-02-26T10:16:25;11.30;;;4.68;;
34200;SDS011;20469;55.638;37.670;2024-02-26T10:18:53;12.25;;;4.65;;
34200;SDS011;20469;55.638;37.670;2024-02-26T10:21:26;9.52;;;4.95;;
34200;SDS011;20469;55.638;37.670;2024-02-26T10:24:00;12.80;;;5.05;;
34200;SDS011;20469;55.638;37.670;2024-02-26T10:26:27;11.48;;;5.22;;
34200;SDS011;20469;55.638;37.670;2024-02-26T10:28:55;11.07;;;4.78;;
34200;SDS011;20469;55.638;37.670;2024-02-26T10:31:28;15.57;;;5.03;;
34200;SDS011;20469;55.638;37.670;2024-02-26T10:33:57;10.75;;;4.68;;
34200;SDS011;20469;55.638;37.670;2024-02-26T10:36:29;12.00;;;4.82;;
34200;SDS011;20469;55.638;37.670;2024-02-26T10:39:14;9.55;;;5.00;;
34200;SDS011;20469;55.638;37.670;2024-02-26T10:41:47;11.70;;;4.82;;
34200;SDS011;20469;55.638;37.670;2024-02-26T10:44:14;10.75;;;4.95;;
34200;SDS011;20469;55.638;37.670;2024-02-26T10:46:48;8.57;;;5.05;;
34200;SDS011;20469;55.638;37.670;2024-02-26T10:49:18;10.63;;;5.55;;
34200;SDS011;20469;55.638;37.670;2024-02-26T10:51:53;9.30;;;4.88;;
34200;SDS011;20469;55.638;37.670;2024-02-26T10:54:23;13.25;;;5.57;;
34200;SDS011;20469;55.638;37.670;2024-02-26T10:56:51;11.32;;;5.20;;
34200;SDS011;20469;55.638;37.670;2024-02-26T10:59:21;13.48;;;4.85;;
34200;SDS011;20469;55.638;37.670;2024-02-26T11:01:53;11.25;;;5.32;;
34200;SDS011;20469;55.638;37.670;2024-02-26T11:04:26;11.65;;;5.07;;
34200;SDS011;20469;55.638;37.670;2024-02-26T11:06:56;13.27;;;5.07;;
34200;SDS011;20469;55.638;37.670;2024-02-26T11:09:25;16.00;;;5.50;;
34200;SDS011;20469;55.638;37.670;2024-02-26T11:11:58;17.10;;;6.13;;
34200;SDS011;20469;55.638;37.670;2024-02-26T11:14:27;14.32;;;5.75;;
34200;SDS011;20469;55.638;37.670;2024-02-26T11:16:57;11.10;;;5.60;;
34200;SDS011;20469;55.638;37.670;2024-02-26T11:19:25;17.27;;;9.98;;
34200;SDS011;20469;55.638;37.670;2024-02-26T11:22:00;10.40;;;5.90;;
34200;SDS011;20469;55.638;37.670;2024-02-26T11:24:44;12.18;;;5.20;;
34200;SDS011;20469;55.638;37.670;2024-02-26T11:27:12;12.35;;;6.15;;
34200;SDS011;20469;55.638;37.670;2024-02-26T11:29:43;10.55;;;5.47;;
34200;SDS011;20469;55.638;37.670;2024-02-26T11:32:12;11.73;;;5.22;;
34200;SDS011;20469;55.638;37.670;2024-02-26T11:34:41;12.10;;;5.10;;
34200;SDS011;20469;55.638;37.670;2024-02-26T11:37:11;11.80;;;5.68;;
34200;SDS011;20469;55.638;37.670;2024-02-26T11:39:40;8.80;;;4.93;;
34200;SDS011;20469;55.638;37.670;2024-02-26T11:42:08;14.85;;;5.55;;
34200;SDS011;20469;55.638;37.670;2024-02-26T11:44:38;24.42;;;8.38;;
34200;SDS011;20469;55.638;37.670;2024-02-26T11:49:40;15.52;;;5.63;;
34200;SDS011;20469;55.638;37.670;2024-02-26T11:52:09;13.05;;;5.47;;
34200;SDS011;20469;55.638;37.670;2024-02-26T11:54:43;10.30;;;4.72;;
34200;SDS011;20469;55.638;37.670;2024-02-26T11:57:22;10.27;;;5.35;;
34200;SDS011;20469;55.638;37.670;2024-02-26T11:59:51;12.77;;;5.10;;
34200;SDS011;20469;55.638;37.670;2024-02-26T12:02:38;12.02;;;5.32;;
34200;SDS011;20469;55.638;37.670;2024-02-26T12:05:07;11.85;;;5.63;;
34200;SDS011;20469;55.638;37.670;2024-02-26T12:07:37;11.90;;;5.38;;
34200;SDS011;20469;55.638;37.670;2024-02-26T12:10:20;11.32;;;4.85;;
34200;SDS011;20469;55.638;37.670;2024-02-26T12:12:58;9.80;;;4.82;;
34200;SDS011;20469;55.638;37.670;2024-02-26T12:15:36;12.68;;;5.50;;
34200;SDS011;20469;55.638;37.670;2024-02-26T12:18:08;11.35;;;5.20;;
34200;SDS011;20469;55.638;37.670;2024-02-26T12:20:39;9.95;;;5.30;;
34200;SDS011;20469;55.638;37.670;2024-02-26T12:23:07;11.10;;;5.25;;
34200;SDS011;20469;55.638;37.670;2024-02-26T12:25:40;10.77;;;5.38;;
34200;SDS011;20469;55.638;37.670;2024-02-26T12:28:10;10.63;;;5.30;;
34200;SDS011;20469;55.638;37.670;2024-02-26T12:30:39;12.32;;;5.13;;
34200;SDS011;20469;55.638;37.670;2024-02-26T12:33:08;16.58;;;5.95;;
34200;SDS011;20469;55.638;37.670;2024-02-26T12:35:36;12.93;;;5.50;;
34200;SDS011;20469;55.638;37.670;2024-02-26T12:38:04;8.80;;;4.90;;
34200;SDS011;20469;55.638;37.670;2024-02-26T12:40:35;12.65;;;4.82;;
34200;SDS011;20469;55.638;37.670;2024-02-26T12:43:03;7.50;;;4.60;;
34200;SDS011;20469;55.638;37.670;2024-02-26T12:45:32;8.40;;;4.53;;
34200;SDS011;20469;55.638;37.670;2024-02-26T12:48:00;11.15;;;4.95;;
34200;SDS011;20469;55.638;37.670;2024-02-26T12:50:28;14.88;;;4.57;;
34200;SDS011;20469;55.638;37.670;2024-02-26T12:52:58;10.45;;;5.53;;
34200;SDS011;20469;55.638;37.670;2024-02-26T12:55:26;9.73;;;4.15;;
34200;SDS011;20469;55.638;37.670;2024-02-26T12:57:54;12.18;;;3.92;;
34200;SDS011;20469;55.638;37.670;2024-02-26T13:00:24;9.15;;;3.67;;
34200;SDS011;20469;55.638;37.670;2024-02-26T13:02:55;8.10;;;3.78;;
34200;SDS011;20469;55.638;37.670;2024-02-26T13:05:23;6.43;;;3.63;;
34200;SDS011;20469;55.638;37.670;2024-02-26T13:07:52;9.82;;;3.58;;
34200;SDS011;20469;55.638;37.670;2024-02-26T13:10:20;10.40;;;3.90;;
34200;SDS011;20469;55.638;37.670;2024-02-26T13:12:49;8.82;;;3.65;;
34200;SDS011;20469;55.638;37.670;2024-02-26T13:15:18;8.32;;;3.58;;
34200;SDS011;20469;55.638;37.670;2024-02-26T13:17:46;8.98;;;3.40;;
34200;SDS011;20469;55.638;37.670;2024-02-26T13:20:28;8.30;;;3.40;;
34200;SDS011;20469;55.638;37.670;2024-02-26T13:23:01;8.95;;;3.72;;
34200;SDS011;20469;55.638;37.670;2024-02-26T13:25:29;7.15;;;3.20;;
34200;SDS011;20469;55.638;37.670;2024-02-26T13:28:13;6.93;;;3.50;;
34200;SDS011;20469;55.638;37.670;2024-02-26T13:30:53;7.85;;;2.90;;
34200;SDS011;20469;55.638;37.670;2024-02-26T13:33:25;6.50;;;3.28;;
34200;SDS011;20469;55.638;37.670;2024-02-26T13:35:56;6.50;;;2.97;;
34200;SDS011;20469;55.638;37.670;2024-02-26T13:38:30;6.05;;;3.20;;
34200;SDS011;20469;55.638;37.670;2024-02-26T13:40:58;18.38;;;8.43;;
34200;SDS011;20469;55.638;37.670;2024-02-26T13:43:27;8.25;;;3.30;;
34200;SDS011;20469;55.638;37.670;2024-02-26T13:45:57;7.72;;;3.40;;
34200;SDS011;20469;55.638;37.670;2024-02-26T13:48:25;6.65;;;3.30;;
34200;SDS011;20469;55.638;37.670;2024-02-26T13:53:42;7.50;;;3.45;;
34200;SDS011;20469;55.638;37.670;2024-02-26T13:56:10;11.63;;;4.32;;
34200;SDS011;20469;55.638;37.670;2024-02-26T13:58:38;12.32;;;4.10;;
34200;SDS011;20469;55.638;37.670;2024-02-26T14:01:08;10.68;;;4.30;;
34200;SDS011;20469;55.638;37.670;2024-02-26T14:03:36;8.20;;;4.32;;
34200;SDS011;20469;55.638;37.670;2024-02-26T14:06:04;8.15;;;4.18;;
34200;SDS011;20469;55.638;37.670;2024-02-26T14:08:32;9.05;;;4.40;;
34200;SDS011;20469;55.638;37.670;2024-02-26T14:11:01;10.18;;;4.60;;
34200;SDS011;20469;55.638;37.670;2024-02-26T14:13:30;10.65;;;4.38;;
34200;SDS011;20469;55.638;37.670;2024-02-26T14:16:04;8.85;;;4.60;;
34200;SDS011;20469;55.638;37.670;2024-02-26T14:18:32;11.40;;;4.75;;
34200;SDS011;20469;55.638;37.670;2024-02-26T14:21:03;11.25;;;4.40;;
34200;SDS011;20469;55.638;37.670;2024-02-26T14:23:32;12.77;;;4.82;;
34200;SDS011;20469;55.638;37.670;2024-02-26T14:26:00;10.27;;;4.65;;
34200;SDS011;20469;55.638;37.670;2024-02-26T14:28:28;9.73;;;4.82;;
34200;SDS011;20469;55.638;37.670;2024-02-26T14:31:02;9.73;;;4.20;;
34200;SDS011;20469;55.638;37.670;2024-02-26T14:33:33;8.98;;;4.35;;
34200;SDS011;20469;55.638;37.670;2024-02-26T14:36:01;11.73;;;4.60;;
34200;SDS011;20469;55.638;37.670;2024-02-26T14:38:33;10.98;;;4.55;;
34200;SDS011;20469;55.638;37.670;2024-02-26T14:41:01;9.38;;;4.20;;
34200;SDS011;20469;55.638;37.670;2024-02-26T14:43:29;10.73;;;5.07;;
34200;SDS011;20469;55.638;37.670;2024-02-26T14:45:58;11.18;;;4.45;;
34200;SDS011;20469;55.638;37.670;2024-02-26T14:48:26;11.85;;;4.88;;
34200;SDS011;20469;55.638;37.670;2024-02-26T14:50:56;10.68;;;4.72;;